createdAt,value
2018-02-20T00:01:42.469Z,96896.30
2018-02-20T00:04:09.957Z,96883.06
2018-02-20T00:06:38.106Z,96880.74
2018-02-20T00:09:05.576Z,96873.66
2018-02-20T00:11:33.028Z,96881.19
2018-02-20T00:14:01.031Z,96872.67
2018-02-20T00:16:28.709Z,96872.52
2018-02-20T00:18:56.331Z,96880.94
2018-02-20T00:21:23.964Z,96880.95
2018-02-20T00:23:51.509Z,96878.39
2018-02-20T00:26:18.982Z,96877.81
2018-02-20T00:28:46.471Z,96872.53
2018-02-20T00:31:13.946Z,96862.83
2018-02-20T00:33:41.527Z,96854.16
2018-02-20T00:36:09.222Z,96850.66
2018-02-20T00:38:36.666Z,96851.77
2018-02-20T00:41:04.164Z,96854.41
2018-02-20T00:43:31.634Z,96853.01
2018-02-20T00:45:59.090Z,96846.88
2018-02-20T00:48:26.548Z,96837.69
2018-02-20T00:50:54.076Z,96845.11
2018-02-20T00:53:21.549Z,96839.65
2018-02-20T00:55:49.161Z,96835.09
2018-02-20T00:58:16.584Z,96835.56
2018-02-20T01:00:44.070Z,96838.30
2018-02-20T01:03:11.532Z,96829.69
2018-02-20T01:05:39.065Z,96829.36
2018-02-20T01:08:06.590Z,96828.75
2018-02-20T01:10:34.113Z,96835.39
2018-02-20T01:13:02.488Z,96837.27
2018-02-20T01:15:29.896Z,96840.44
2018-02-20T01:17:57.322Z,96835.77
2018-02-20T01:20:24.755Z,96839.87
2018-02-20T01:22:52.499Z,96834.72
2018-02-20T01:25:19.900Z,96824.59
2018-02-20T01:27:47.741Z,96827.03
2018-02-20T01:30:15.230Z,96824.75
2018-02-20T01:32:42.727Z,96818.45
2018-02-20T01:35:10.191Z,96820.49
2018-02-20T01:37:37.583Z,96814.57
2018-02-20T01:40:05.191Z,96814.97
2018-02-20T01:42:32.707Z,96818.77
2018-02-20T01:45:00.140Z,96819.09
2018-02-20T01:47:27.639Z,96820.44
2018-02-20T01:49:55.145Z,96820.48
2018-02-20T01:52:22.789Z,96808.39
2018-02-20T01:54:50.328Z,96811.56
2018-02-20T01:57:17.792Z,96809.11
2018-02-20T01:59:45.319Z,96808.69
2018-02-20T02:02:12.804Z,96799.50
2018-02-20T02:04:40.271Z,96805.90
2018-02-20T02:07:07.748Z,96805.31
2018-02-20T02:09:35.238Z,96814.93
2018-02-20T02:12:02.892Z,96812.80
2018-02-20T02:14:30.414Z,96801.98
2018-02-20T02:16:57.863Z,96804.33
2018-02-20T02:19:25.360Z,96809.89
2018-02-20T02:21:52.926Z,96801.33
2018-02-20T02:24:20.537Z,96796.45
2018-02-20T02:26:48.174Z,96803.30
2018-02-20T02:29:15.678Z,96801.42
2018-02-20T02:31:43.183Z,96793.06
2018-02-20T02:34:10.677Z,96788.44
2018-02-20T02:36:38.193Z,96791.80
2018-02-20T02:39:05.656Z,96794.67
2018-02-20T02:41:33.144Z,96800.69
2018-02-20T02:44:00.589Z,96785.20
2018-02-20T02:46:28.044Z,96781.73
2018-02-20T02:48:55.536Z,96793.64
2018-02-20T02:51:23.308Z,96799.83
2018-02-20T02:53:50.811Z,96801.67
2018-02-20T02:56:18.492Z,96792.75
2018-02-20T02:58:45.967Z,96788.45
2018-02-20T03:01:13.505Z,96794.47
2018-02-20T03:03:40.949Z,96786.62
2018-02-20T03:06:08.424Z,96787.25
2018-02-20T03:08:35.894Z,96786.20
2018-02-20T03:11:03.381Z,96781.02
2018-02-20T03:13:30.956Z,96781.38
2018-02-20T03:15:58.426Z,96786.56
2018-02-20T03:18:25.933Z,96785.64
2018-02-20T03:20:53.450Z,96784.49
2018-02-20T03:23:20.909Z,96782.78
2018-02-20T03:25:48.381Z,96783.81
2018-02-20T03:28:15.852Z,96774.43
2018-02-20T03:30:43.383Z,96777.74
2018-02-20T03:33:10.946Z,96768.97
2018-02-20T03:35:38.368Z,96776.30
2018-02-20T03:38:05.838Z,96771.46
2018-02-20T03:40:33.310Z,96778.01
2018-02-20T03:43:00.811Z,96772.23
2018-02-20T03:45:28.290Z,96768.98
2018-02-20T03:47:55.818Z,96771.30
2018-02-20T03:50:23.850Z,96768.70
2018-02-20T03:52:51.317Z,96759.16
2018-02-20T03:55:18.886Z,96759.11
2018-02-20T03:57:46.388Z,96756.00
2018-02-20T04:00:13.863Z,96761.97
2018-02-20T04:02:41.367Z,96767.11
2018-02-20T04:05:08.811Z,96762.02
2018-02-20T04:07:36.300Z,96758.70
2018-02-20T04:10:03.764Z,96761.24
2018-02-20T04:12:31.276Z,96764.72
2018-02-20T04:14:58.736Z,96765.39
2018-02-20T04:17:26.191Z,96774.02
2018-02-20T04:19:53.695Z,96774.58
2018-02-20T04:22:21.209Z,96773.66
2018-02-20T04:24:48.737Z,96775.56
2018-02-20T04:27:16.321Z,96772.92
2018-02-20T04:29:43.820Z,96769.49
2018-02-20T04:32:11.422Z,96770.48
2018-02-20T04:34:38.929Z,96771.68
2018-02-20T04:37:06.389Z,96776.33
2018-02-20T04:39:33.973Z,96766.67
2018-02-20T04:42:01.443Z,96774.56
2018-02-20T04:44:28.932Z,96774.09
2018-02-20T04:46:56.603Z,96774.20
2018-02-20T04:49:24.120Z,96770.53
2018-02-20T04:51:51.638Z,96775.78
2018-02-20T04:54:19.136Z,96773.65
2018-02-20T04:56:46.746Z,96768.94
2018-02-20T04:59:14.373Z,96766.69
2018-02-20T05:01:41.896Z,96767.48
2018-02-20T05:04:09.334Z,96759.63
2018-02-20T05:06:36.722Z,96759.69
2018-02-20T05:09:04.239Z,96765.34
2018-02-20T05:11:31.750Z,96766.16
2018-02-20T05:13:59.236Z,96771.98
2018-02-20T05:16:26.728Z,96773.59
2018-02-20T05:18:54.261Z,96765.86
2018-02-20T05:21:21.878Z,96761.03
2018-02-20T05:23:49.399Z,96758.91
2018-02-20T05:26:16.874Z,96766.06
2018-02-20T05:28:44.375Z,96765.28
2018-02-20T05:31:11.788Z,96757.03
2018-02-20T05:33:39.334Z,96768.56
2018-02-20T05:36:06.969Z,96760.88
2018-02-20T05:38:34.682Z,96762.95
2018-02-20T05:41:02.146Z,96767.56
2018-02-20T05:43:29.669Z,96762.59
2018-02-20T05:45:57.245Z,96769.97
2018-02-20T05:48:24.716Z,96769.70
2018-02-20T05:50:52.195Z,96757.41
2018-02-20T05:53:19.658Z,96761.41
2018-02-20T05:55:47.201Z,96761.39
2018-02-20T05:58:14.728Z,96758.38
2018-02-20T06:00:42.468Z,96754.34
2018-02-20T06:03:09.882Z,96756.78
2018-02-20T06:05:37.379Z,96756.98
2018-02-20T06:08:04.846Z,96752.47
2018-02-20T06:10:32.356Z,96748.30
2018-02-20T06:12:59.795Z,96748.09
2018-02-20T06:15:27.342Z,96743.84
2018-02-20T06:17:54.930Z,96748.42
2018-02-20T06:20:22.383Z,96747.63
2018-02-20T06:22:49.861Z,96744.58
2018-02-20T06:25:17.648Z,96743.89
2018-02-20T06:27:45.186Z,96741.25
2018-02-20T06:30:12.741Z,96750.33
2018-02-20T06:32:40.239Z,96748.67
2018-02-20T06:35:07.705Z,96751.16
2018-02-20T06:37:35.215Z,96744.42
2018-02-20T06:40:03.366Z,96746.23
2018-02-20T06:42:30.887Z,96755.06
2018-02-20T06:44:58.351Z,96755.42
2018-02-20T06:47:25.883Z,96763.16
2018-02-20T06:49:53.362Z,96758.96
2018-02-20T06:52:21.018Z,96761.14
2018-02-20T06:54:48.514Z,96763.21
2018-02-20T06:57:16.131Z,96766.94
2018-02-20T06:59:43.667Z,96765.34
2018-02-20T07:02:11.181Z,96767.98
2018-02-20T07:04:38.679Z,96768.56
2018-02-20T07:07:06.171Z,96772.30
2018-02-20T07:09:33.694Z,96767.84
2018-02-20T07:12:01.199Z,96763.05
2018-02-20T07:14:28.820Z,96760.67
2018-02-20T07:16:56.325Z,96764.19
2018-02-20T07:19:24.162Z,96763.10
2018-02-20T07:21:51.680Z,96765.38
2018-02-20T07:24:19.138Z,96757.69
2018-02-20T07:26:46.686Z,96765.91
2018-02-20T07:29:14.739Z,96763.41
2018-02-20T07:31:42.234Z,96760.33
2018-02-20T07:34:09.741Z,96765.95
2018-02-20T07:36:37.373Z,96770.05
2018-02-20T07:39:04.878Z,96769.66
2018-02-20T07:41:32.340Z,96766.70
2018-02-20T07:43:59.824Z,96763.92
2018-02-20T07:46:27.305Z,96760.56
2018-02-20T07:48:54.870Z,96762.81
2018-02-20T07:51:22.716Z,96764.01
2018-02-20T07:53:50.202Z,96769.13
2018-02-20T07:56:17.715Z,96764.34
2018-02-20T07:58:45.295Z,96770.20
2018-02-20T08:01:12.803Z,96772.52
2018-02-20T08:03:40.270Z,96768.13
2018-02-20T08:06:07.780Z,96774.12
2018-02-20T08:08:38.381Z,96772.20
2018-02-20T08:11:05.880Z,96772.81
2018-02-20T08:13:33.433Z,96766.66
2018-02-20T08:16:00.926Z,96772.36
2018-02-20T08:18:28.434Z,96763.41
2018-02-20T08:20:55.972Z,96764.63
2018-02-20T08:23:23.465Z,96760.64
2018-02-20T08:25:50.929Z,96764.80
2018-02-20T08:28:19.597Z,96766.60
2018-02-20T08:30:47.110Z,96762.39
2018-02-20T08:33:14.634Z,96749.98
2018-02-20T08:35:42.162Z,96743.97
2018-02-20T08:38:09.724Z,96741.16
2018-02-20T08:40:37.346Z,96741.21
2018-02-20T08:43:04.962Z,96735.03
2018-02-20T08:45:32.715Z,96723.86
2018-02-20T08:48:00.218Z,96736.06
2018-02-20T08:50:27.693Z,96734.19
2018-02-20T08:52:55.255Z,96724.34
2018-02-20T08:55:22.738Z,96731.99
2018-02-20T08:57:50.262Z,96726.96
2018-02-20T09:00:17.804Z,96733.06
2018-02-20T09:02:45.215Z,96729.55
2018-02-20T09:05:12.743Z,96724.77
2018-02-20T09:07:40.404Z,96726.03
2018-02-20T09:10:07.911Z,96721.43
2018-02-20T09:12:35.417Z,96717.31
2018-02-20T09:15:02.934Z,96723.77
2018-02-20T09:17:30.427Z,96722.16
2018-02-20T09:19:58.083Z,96714.48
2018-02-20T09:22:25.582Z,96715.45
2018-02-20T09:24:53.236Z,96705.95
2018-02-20T09:27:20.760Z,96709.92
2018-02-20T09:29:48.318Z,96705.28
2018-02-20T09:32:15.805Z,96706.45
2018-02-20T09:34:43.270Z,96692.78
2018-02-20T09:37:10.751Z,96701.28
2018-02-20T09:39:38.226Z,96704.63
2018-02-20T09:42:05.788Z,96699.47
2018-02-20T09:44:33.282Z,96694.52
2018-02-20T09:47:00.832Z,96700.45
2018-02-20T09:49:28.277Z,96697.56
2018-02-20T09:51:55.802Z,96701.95
2018-02-20T09:54:23.241Z,96702.09
2018-02-20T09:56:50.813Z,96695.70
2018-02-20T09:59:18.278Z,96697.73
2018-02-20T10:01:45.754Z,96694.47
2018-02-20T10:04:13.251Z,96700.71
2018-02-20T10:06:40.711Z,96699.55
2018-02-20T10:09:08.243Z,96691.04
2018-02-20T10:11:35.746Z,96698.30
2018-02-20T10:14:03.211Z,96697.45
2018-02-20T10:16:30.728Z,96698.98
2018-02-20T10:18:58.207Z,96706.61
2018-02-20T10:21:25.725Z,96714.17
2018-02-20T10:23:53.195Z,96709.45
2018-02-20T10:26:20.766Z,96699.49
2018-02-20T10:28:48.424Z,96713.03
2018-02-20T10:31:15.973Z,96709.43
2018-02-20T10:33:43.429Z,96709.89
2018-02-20T10:36:10.949Z,96707.44
2018-02-20T10:38:38.479Z,96708.66
2018-02-20T10:41:06.036Z,96697.03
2018-02-20T10:43:33.626Z,96699.06
2018-02-20T10:46:01.103Z,96694.61
2018-02-20T10:48:28.641Z,96696.56
2018-02-20T10:50:56.365Z,96701.88
2018-02-20T10:53:23.854Z,96689.26
2018-02-20T10:55:51.355Z,96694.48
2018-02-20T10:58:18.836Z,96687.41
2018-02-20T11:00:46.317Z,96691.00
2018-02-20T11:03:13.905Z,96686.37
2018-02-20T11:05:41.425Z,96682.45
2018-02-20T11:08:08.898Z,96690.00
2018-02-20T11:10:36.498Z,96681.72
2018-02-20T11:13:04.619Z,96682.62
2018-02-20T11:15:32.654Z,96671.54
2018-02-20T11:18:00.176Z,96676.10
2018-02-20T11:20:27.778Z,96678.03
2018-02-20T11:22:55.320Z,96678.73
2018-02-20T11:25:22.925Z,96674.91
2018-02-20T11:27:50.480Z,96669.98
2018-02-20T11:30:18.035Z,96669.42
2018-02-20T11:32:45.618Z,96672.84
2018-02-20T11:35:13.147Z,96671.97
2018-02-20T11:37:40.602Z,96664.23
2018-02-20T11:40:08.014Z,96663.94
2018-02-20T11:42:35.507Z,96663.27
2018-02-20T11:45:03.086Z,96652.94
2018-02-20T11:47:30.767Z,96646.09
2018-02-20T11:49:58.238Z,96650.73
2018-02-20T11:52:25.783Z,96646.46
2018-02-20T11:54:53.514Z,96648.05
2018-02-20T11:57:21.039Z,96645.91
2018-02-20T11:59:48.478Z,96639.47
2018-02-20T12:02:15.947Z,96640.02
2018-02-20T12:04:43.421Z,96637.51
2018-02-20T12:07:10.985Z,96629.30
2018-02-20T12:09:38.558Z,96625.09
2018-02-20T12:12:06.075Z,96623.71
2018-02-20T12:14:33.565Z,96628.79
2018-02-20T12:17:01.194Z,96632.23
2018-02-20T12:19:28.802Z,96631.05
2018-02-20T12:21:56.329Z,96632.42
2018-02-20T12:24:23.805Z,96620.47
2018-02-20T12:26:51.375Z,96623.38
2018-02-20T12:29:19.090Z,96628.19
2018-02-20T12:31:46.565Z,96624.41
2018-02-20T12:34:14.033Z,96619.39
2018-02-20T12:36:41.562Z,96616.06
2018-02-20T12:39:09.406Z,96620.33
2018-02-20T12:41:36.990Z,96618.74
2018-02-20T12:44:04.510Z,96614.89
2018-02-20T12:46:32.383Z,96618.53
2018-02-20T12:48:59.876Z,96626.28
2018-02-20T12:51:27.366Z,96626.03
2018-02-20T12:53:54.876Z,96621.84
2018-02-20T12:56:22.570Z,96627.00
2018-02-20T12:58:50.118Z,96616.52
2018-02-20T13:01:17.659Z,96610.58
2018-02-20T13:03:45.212Z,96610.71
2018-02-20T13:06:12.706Z,96611.13
2018-02-20T13:08:40.189Z,96606.02
2018-02-20T13:11:07.676Z,96598.72
2018-02-20T13:13:35.986Z,96607.80
2018-02-20T13:16:03.530Z,96603.81
2018-02-20T13:18:30.998Z,96597.27
2018-02-20T13:20:58.539Z,96603.68
2018-02-20T13:23:26.002Z,96597.01
2018-02-20T13:25:53.470Z,96597.86
2018-02-20T13:28:20.942Z,96597.66
2018-02-20T13:30:48.606Z,96599.41
2018-02-20T13:33:16.146Z,96597.24
2018-02-20T13:35:43.750Z,96593.19
2018-02-20T13:38:11.195Z,96586.70
2018-02-20T13:40:38.649Z,96589.98
2018-02-20T13:43:06.264Z,96596.52
2018-02-20T13:45:33.667Z,96583.80
2018-02-20T13:48:01.210Z,96589.96
2018-02-20T13:50:28.747Z,96591.25
2018-02-20T13:52:56.220Z,96593.51
2018-02-20T13:55:27.651Z,96590.90
2018-02-20T13:57:55.166Z,96585.73
2018-02-20T14:00:22.659Z,96583.70
2018-02-20T14:02:50.325Z,96573.00
2018-02-20T14:05:17.825Z,96580.30
2018-02-20T14:07:45.330Z,96574.38
2018-02-20T14:10:12.921Z,96576.88
2018-02-20T14:12:40.379Z,96570.91
2018-02-20T14:15:08.462Z,96567.56
2018-02-20T14:17:35.948Z,96563.41
2018-02-20T14:20:03.518Z,96562.96
2018-02-20T14:22:30.995Z,96560.33
2018-02-20T14:25:01.926Z,96552.70
2018-02-20T14:27:29.447Z,96554.29
2018-02-20T14:29:57.131Z,96541.08
2018-02-20T14:32:24.603Z,96542.01
2018-02-20T14:34:52.111Z,96539.20
2018-02-20T14:37:19.671Z,96546.60
2018-02-20T14:39:47.130Z,96539.16
2018-02-20T14:42:14.660Z,96538.92
2018-02-20T14:44:42.180Z,96538.16
2018-02-20T14:47:09.781Z,96543.14
2018-02-20T14:49:37.257Z,96536.14
2018-02-20T14:52:04.918Z,96538.39
2018-02-20T14:54:32.432Z,96544.02
2018-02-20T14:56:59.848Z,96533.77
2018-02-20T14:59:27.402Z,96540.08
2018-02-20T15:01:54.807Z,96542.61
2018-02-20T15:04:22.329Z,96540.16
2018-02-20T15:06:49.849Z,96542.59
2018-02-20T15:09:17.601Z,96542.34
2018-02-20T15:11:45.038Z,96538.24
2018-02-20T15:14:12.546Z,96528.33
2018-02-20T15:16:40.006Z,96511.13
2018-02-20T15:19:07.523Z,96511.13
2018-02-20T15:21:34.989Z,96509.32
2018-02-20T15:24:02.446Z,96519.34
2018-02-20T15:26:29.939Z,96509.48
2018-02-20T15:28:57.505Z,96498.13
2018-02-20T15:31:25.008Z,96501.11
2018-02-20T15:33:52.535Z,96490.55
2018-02-20T15:36:20.025Z,96494.33
2018-02-20T15:38:47.495Z,96502.55
2018-02-20T15:41:15.088Z,96506.24
2018-02-20T15:43:42.700Z,96503.99
2018-02-20T15:46:10.103Z,96508.03
2018-02-20T15:48:37.556Z,96504.31
2018-02-20T15:51:05.198Z,96507.02
2018-02-20T15:53:32.677Z,96511.49
2018-02-20T15:56:00.865Z,96504.84
2018-02-20T15:58:28.383Z,96508.94
2018-02-20T16:00:55.942Z,96524.27
2018-02-20T16:03:23.413Z,96528.81
2018-02-20T16:05:50.868Z,96530.20
2018-02-20T16:08:18.555Z,96525.95
2018-02-20T16:10:46.197Z,96531.89
2018-02-20T16:13:13.784Z,96531.23
2018-02-20T16:15:56.062Z,96532.30
2018-02-20T16:18:23.488Z,96542.60
2018-02-20T16:20:50.992Z,96541.39
2018-02-20T16:23:18.550Z,96544.70
2018-02-20T16:25:46.087Z,96552.33
2018-02-20T16:28:13.725Z,96546.42
2018-02-20T16:30:41.226Z,96559.50
2018-02-20T16:33:08.810Z,96561.03
2018-02-20T16:35:36.276Z,96566.97
2018-02-20T16:38:03.746Z,96561.65
2018-02-20T16:40:31.322Z,96576.76
2018-02-20T16:42:58.812Z,96578.12
2018-02-20T16:45:26.443Z,96579.44
2018-02-20T16:47:53.952Z,96577.45
2018-02-20T16:50:21.467Z,96579.90
2018-02-20T16:52:48.940Z,96584.84
2018-02-20T16:55:16.709Z,96588.38
2018-02-20T16:57:44.187Z,96584.60
2018-02-20T17:00:11.839Z,96591.07
2018-02-20T17:02:39.398Z,96595.28
2018-02-20T17:05:07.073Z,96599.97
2018-02-20T17:07:34.621Z,96593.17
2018-02-20T17:10:02.063Z,96592.14
2018-02-20T17:12:29.715Z,96587.91
2018-02-20T17:14:57.227Z,96594.86
2018-02-20T17:17:24.852Z,96594.09
2018-02-20T17:19:52.519Z,96599.69
2018-02-20T17:22:20.180Z,96600.12
2018-02-20T17:24:47.900Z,96613.83
2018-02-20T17:27:15.414Z,96615.17
2018-02-20T17:29:42.886Z,96620.10
2018-02-20T17:32:10.420Z,96616.02
2018-02-20T17:34:37.944Z,96623.75
2018-02-20T17:37:05.503Z,96624.72
2018-02-20T17:39:33.488Z,96628.57
2018-02-20T17:42:01.071Z,96642.38
2018-02-20T17:44:28.531Z,96640.42
2018-02-20T17:46:56.000Z,96638.20
2018-02-20T17:49:23.580Z,96650.29
2018-02-20T17:51:51.079Z,96653.05
2018-02-20T17:54:18.961Z,96652.72
2018-02-20T17:56:46.465Z,96662.82
2018-02-20T17:59:13.991Z,96652.98
2018-02-20T18:01:41.467Z,96659.23
2018-02-20T18:04:08.937Z,96657.51
2018-02-20T18:06:36.459Z,96660.14
2018-02-20T18:09:03.918Z,96648.89
2018-02-20T18:11:31.467Z,96659.67
2018-02-20T18:13:59.307Z,96657.30
2018-02-20T18:16:26.852Z,96654.05
2018-02-20T18:18:54.386Z,96662.37
2018-02-20T18:21:21.895Z,96666.95
2018-02-20T18:23:49.398Z,96666.48
2018-02-20T18:26:16.865Z,96681.27
2018-02-20T18:28:44.390Z,96680.63
2018-02-20T18:31:11.843Z,96688.59
2018-02-20T18:33:40.061Z,96689.25
2018-02-20T18:36:08.406Z,96690.81
2018-02-20T18:38:35.951Z,96704.89
2018-02-20T18:41:03.462Z,96691.13
2018-02-20T18:43:30.974Z,96703.00
2018-02-20T18:45:58.645Z,96701.09
2018-02-20T18:48:26.131Z,96693.64
2018-02-20T18:50:54.286Z,96702.14
2018-02-20T18:53:21.729Z,96702.25
2018-02-20T18:55:49.210Z,96711.91
2018-02-20T18:58:16.702Z,96699.33
2018-02-20T19:00:44.336Z,96714.66
2018-02-20T19:03:11.794Z,96724.02
2018-02-20T19:05:39.309Z,96725.42
2018-02-20T19:08:06.783Z,96718.48
2018-02-20T19:10:34.267Z,96737.70
2018-02-20T19:13:01.740Z,96731.93
2018-02-20T19:15:29.150Z,96742.80
2018-02-20T19:17:56.651Z,96747.20
2018-02-20T19:20:24.119Z,96754.42
2018-02-20T19:22:51.583Z,96757.39
2018-02-20T19:25:19.062Z,96755.58
2018-02-20T19:27:46.527Z,96746.50
2018-02-20T19:30:14.047Z,96754.44
2018-02-20T19:32:41.497Z,96760.98
2018-02-20T19:35:09.039Z,96764.20
2018-02-20T19:37:36.954Z,96759.32
2018-02-20T19:40:04.365Z,96755.99
2018-02-20T19:42:31.883Z,96758.19
2018-02-20T19:44:59.339Z,96766.85
2018-02-20T19:47:26.841Z,96762.37
2018-02-20T19:49:54.299Z,96763.11
2018-02-20T19:52:22.755Z,96761.80
2018-02-20T19:54:50.249Z,96765.16
2018-02-20T19:57:17.747Z,96765.14
2018-02-20T19:59:45.212Z,96763.38
2018-02-20T20:02:12.707Z,96766.25
2018-02-20T20:04:40.312Z,96770.55
2018-02-20T20:07:07.815Z,96769.81
2018-02-20T20:09:53.442Z,96766.64
2018-02-20T20:12:20.971Z,96772.34
2018-02-20T20:14:48.600Z,96771.52
2018-02-20T20:17:16.156Z,96774.82
2018-02-20T20:19:44.249Z,96775.48
2018-02-20T20:22:11.795Z,96779.34
2018-02-20T20:24:39.350Z,96775.28
2018-02-20T20:27:06.822Z,96782.03
2018-02-20T20:29:34.335Z,96775.84
2018-02-20T20:32:01.766Z,96787.73
2018-02-20T20:34:29.337Z,96781.45
2018-02-20T20:36:56.873Z,96777.98
2018-02-20T20:39:24.384Z,96786.41
2018-02-20T20:41:53.096Z,96781.96
2018-02-20T20:44:20.621Z,96781.27
2018-02-20T20:46:48.080Z,96788.21
2018-02-20T20:49:15.581Z,96789.03
2018-02-20T20:51:43.112Z,96788.39
2018-02-20T20:54:10.602Z,96784.37
2018-02-20T20:56:38.186Z,96791.91
2018-02-20T20:59:05.720Z,96802.09
2018-02-20T21:01:33.247Z,96806.62
2018-02-20T21:04:01.041Z,96801.07
2018-02-20T21:06:28.554Z,96803.38
2018-02-20T21:08:56.018Z,96803.80
2018-02-20T21:11:23.793Z,96806.16
2018-02-20T21:13:51.271Z,96808.52
2018-02-20T21:16:18.850Z,96807.67
2018-02-20T21:18:46.318Z,96796.00
2018-02-20T21:21:13.888Z,96805.56
2018-02-20T21:23:41.407Z,96797.84
2018-02-20T21:26:08.952Z,96789.39
2018-02-20T21:28:36.461Z,96801.38
2018-02-20T21:31:03.958Z,96795.08
2018-02-20T21:33:31.446Z,96790.97
2018-02-20T21:35:58.958Z,96786.16
2018-02-20T21:38:26.420Z,96773.39
2018-02-20T21:40:53.936Z,96785.17
2018-02-20T21:43:21.431Z,96793.61
2018-02-20T21:45:48.904Z,96793.17
2018-02-20T21:48:16.315Z,96797.70
2018-02-20T21:50:44.142Z,96796.23
2018-02-20T21:53:11.648Z,96798.73
2018-02-20T21:55:39.567Z,96784.02
2018-02-20T21:58:07.135Z,96789.72
2018-02-20T22:00:34.829Z,96785.37
2018-02-20T22:03:02.351Z,96784.03
2018-02-20T22:05:30.015Z,96779.08
2018-02-20T22:07:57.586Z,96786.85
2018-02-20T22:10:25.083Z,96779.37
2018-02-20T22:12:52.626Z,96788.67
2018-02-20T22:15:20.122Z,96775.67
2018-02-20T22:17:47.622Z,96778.53
2018-02-20T22:20:15.151Z,96789.17
2018-02-20T22:22:42.639Z,96787.69
2018-02-20T22:25:10.190Z,96791.41
2018-02-20T22:27:37.735Z,96786.86
2018-02-20T22:30:05.264Z,96791.03
2018-02-20T22:32:32.722Z,96787.61
2018-02-20T22:35:00.241Z,96794.03
2018-02-20T22:37:27.754Z,96798.47
2018-02-20T22:39:55.249Z,96803.80
2018-02-20T22:42:22.709Z,96788.85
2018-02-20T22:44:50.375Z,96801.05
2018-02-20T22:47:17.855Z,96793.05
2018-02-20T22:49:45.306Z,96786.80
2018-02-20T22:52:12.967Z,96792.35
2018-02-20T22:54:40.433Z,96784.27
2018-02-20T22:57:08.012Z,96794.95
2018-02-20T22:59:35.548Z,96799.81
2018-02-20T23:02:02.994Z,96778.89
2018-02-20T23:04:30.413Z,96786.73
2018-02-20T23:06:57.943Z,96791.78
2018-02-20T23:09:25.814Z,96780.31
2018-02-20T23:11:53.276Z,96791.59
2018-02-20T23:14:20.678Z,96782.86
2018-02-20T23:16:48.165Z,96783.29
2018-02-20T23:19:15.821Z,96788.84
2018-02-20T23:21:43.337Z,96791.91
2018-02-20T23:24:10.838Z,96792.00
2018-02-20T23:26:38.374Z,96791.11
2018-02-20T23:29:05.832Z,96774.55
2018-02-20T23:31:33.425Z,96792.29
2018-02-20T23:34:00.925Z,96793.48
2018-02-20T23:36:28.410Z,96787.11
2018-02-20T23:38:55.870Z,96791.49
2018-02-20T23:41:23.356Z,96790.48
2018-02-20T23:43:50.758Z,96785.95
2018-02-20T23:46:18.232Z,96784.87
2018-02-20T23:48:45.691Z,96795.80
2018-02-20T23:51:18.603Z,96792.09
2018-02-20T23:53:46.541Z,96798.02
2018-02-20T23:56:14.015Z,96790.21
2018-02-20T23:58:41.423Z,96789.38
